Time;durP1;ratioP1;P1;durP2;ratioP2;P2;SDS_P1;SDS_P2;PMS_P1;PMS_P2;Temp;Humidity;BMP_temperature;BMP_pressure;BME280_temperature;BME280_humidity;BME280_pressure;Samples;Min_cycle;Max_cycle;Signal;HPM_P1;HPM_P2
2023/08/22 00:01:12;;;;;;;13.67;9.93;;;20.90;99.90;;;;;;5072755;28;20211;-77
2023/08/22 00:03:41;;;;;;;12.57;9.27;;;20.90;99.90;;;;;;5072586;28;20239;-76
2023/08/22 00:06:09;;;;;;;9.97;9.03;;;20.90;99.90;;;;;;5075392;28;20215;-77
2023/08/22 00:08:37;;;;;;;11.83;9.20;;;20.80;99.90;;;;;;5074177;28;20229;-77
2023/08/22 00:11:05;;;;;;;10.30;9.30;;;20.80;99.90;;;;;;5072776;28;20211;-75
2023/08/22 00:13:35;;;;;;;10.77;9.40;;;20.80;99.90;;;;;;5072658;28;20290;-76
2023/08/22 00:16:03;;;;;;;12.60;10.60;;;20.80;99.90;;;;;;5072298;28;20214;-77
2023/08/22 00:18:31;;;;;;;14.67;9.97;;;20.80;99.90;;;;;;5071843;28;20207;-77
2023/08/22 00:20:59;;;;;;;12.10;9.60;;;20.80;99.90;;;;;;5072193;28;20211;-79
2023/08/22 00:23:28;;;;;;;11.37;9.37;;;20.70;99.90;;;;;;5072078;28;20203;-78
2023/08/22 00:25:56;;;;;;;10.73;9.30;;;20.70;99.90;;;;;;5071781;28;20215;-77
2023/08/22 00:28:24;;;;;;;13.27;10.70;;;20.70;99.90;;;;;;5084093;28;20214;-76
2023/08/22 00:30:54;;;;;;;11.73;10.43;;;20.60;99.90;;;;;;5091961;28;20240;-77
2023/08/22 00:33:22;;;;;;;12.20;10.20;;;20.60;99.90;;;;;;5092222;28;20313;-77
2023/08/22 00:35:50;;;;;;;11.40;10.30;;;20.60;99.90;;;;;;5072210;28;20729;-76
2023/08/22 00:38:18;;;;;;;12.03;10.03;;;20.60;99.90;;;;;;5071828;28;20669;-76
2023/08/22 00:40:47;;;;;;;10.40;9.50;;;20.60;99.90;;;;;;5071912;28;20211;-76
2023/08/22 00:43:15;;;;;;;11.87;9.97;;;20.50;99.90;;;;;;5071826;28;20298;-77
2023/08/22 00:45:44;;;;;;;12.80;10.33;;;20.50;99.90;;;;;;5071824;28;20260;-76
2023/08/22 00:48:14;;;;;;;11.90;10.80;;;20.50;99.90;;;;;;5071904;28;20231;-75
2023/08/22 00:50:42;;;;;;;13.07;10.37;;;20.50;99.90;;;;;;5074833;28;20202;-77
2023/08/22 00:53:11;;;;;;;11.67;10.53;;;20.40;99.90;;;;;;5091844;28;20272;-77
2023/08/22 00:55:39;;;;;;;10.53;9.43;;;20.40;99.90;;;;;;5091552;28;20210;-78
2023/08/22 00:58:10;;;;;;;10.63;9.63;;;20.40;99.90;;;;;;5091859;28;20219;-77
2023/08/22 01:00:38;;;;;;;11.97;10.83;;;20.40;99.90;;;;;;5079955;28;20231;-76
2023/08/22 01:03:07;;;;;;;12.37;10.70;;;20.40;99.90;;;;;;5071644;28;20246;-77
2023/08/22 01:05:42;;;;;;;11.53;10.50;;;20.40;99.90;;;;;;5071179;28;20254;-77
2023/08/22 01:08:15;;;;;;;11.80;10.60;;;20.40;99.90;;;;;;5071723;28;20285;-77
2023/08/22 01:10:49;;;;;;;11.00;9.90;;;20.30;99.90;;;;;;5071371;28;20207;-76
2023/08/22 01:13:22;;;;;;;11.60;10.43;;;20.30;99.90;;;;;;5071264;28;20265;-77
2023/08/22 01:15:51;;;;;;;12.23;10.57;;;20.30;99.90;;;;;;5071388;28;20264;-77
2023/08/22 01:18:20;;;;;;;11.37;9.93;;;20.30;99.90;;;;;;5071637;28;20333;-76
2023/08/22 01:20:49;;;;;;;15.30;11.23;;;20.30;99.90;;;;;;5071319;28;20211;-76
2023/08/22 01:23:18;;;;;;;11.33;10.17;;;20.30;99.90;;;;;;5071551;28;20254;-75
2023/08/22 01:25:47;;;;;;;12.77;10.50;;;20.30;99.90;;;;;;5074342;28;20214;-77
2023/08/22 01:28:20;;;;;;;11.57;10.43;;;20.30;99.90;;;;;;5091397;28;20207;-76
2023/08/22 01:30:54;;;;;;;12.77;10.77;;;20.30;99.90;;;;;;5091421;28;20257;-75
2023/08/22 01:33:30;;;;;;;11.00;9.90;;;20.30;99.90;;;;;;5086252;28;20219;-77
2023/08/22 01:35:58;;;;;;;11.87;10.30;;;20.30;99.90;;;;;;5071014;28;20196;-78
2023/08/22 01:38:30;;;;;;;13.60;10.30;;;20.30;99.90;;;;;;5072666;28;20227;-80
2023/08/22 01:40:59;;;;;;;11.37;9.77;;;20.30;99.90;;;;;;5075045;28;20298;-77
2023/08/22 01:43:27;;;;;;;14.23;10.17;;;20.30;99.90;;;;;;5074929;28;20203;-78
2023/08/22 01:45:55;;;;;;;10.57;9.57;;;20.30;99.90;;;;;;5074504;28;20211;-78
2023/08/22 01:48:24;;;;;;;11.13;10.00;;;20.30;99.90;;;;;;5074818;28;20290;-77
2023/08/22 01:50:52;;;;;;;11.37;9.57;;;20.20;99.90;;;;;;5083056;28;20214;-78
2023/08/22 01:53:20;;;;;;;10.93;9.83;;;20.20;99.90;;;;;;5095056;28;20256;-76
2023/08/22 01:55:49;;;;;;;11.60;10.07;;;20.20;99.90;;;;;;5094687;28;20694;-78
2023/08/22 01:58:17;;;;;;;10.77;9.47;;;20.20;99.90;;;;;;5095337;28;20219;-77
2023/08/22 02:00:45;;;;;;;12.03;9.23;;;20.10;99.90;;;;;;5094831;28;20207;-75
2023/08/22 02:03:14;;;;;;;11.43;9.87;;;20.10;99.90;;;;;;5094777;28;20696;-76
2023/08/22 02:05:42;;;;;;;11.30;9.60;;;20.10;99.90;;;;;;5094854;28;20207;-79
2023/08/22 02:08:10;;;;;;;11.93;9.23;;;20.10;99.90;;;;;;5094891;28;20222;-78
2023/08/22 02:10:38;;;;;;;12.33;9.93;;;20.10;99.90;;;;;;5081435;28;20211;-76
2023/08/22 02:13:07;;;;;;;11.37;10.17;;;20.10;99.90;;;;;;5074305;28;20269;-76
2023/08/22 02:15:36;;;;;;;12.23;9.93;;;20.10;99.90;;;;;;5074289;28;20212;-78
2023/08/22 02:18:04;;;;;;;11.00;9.77;;;20.00;99.90;;;;;;5074622;28;20212;-76
2023/08/22 02:20:32;;;;;;;11.27;10.07;;;20.00;99.90;;;;;;5086063;28;20280;-77
2023/08/22 02:23:02;;;;;;;10.60;9.43;;;20.00;99.90;;;;;;5094337;28;20210;-76
2023/08/22 02:25:32;;;;;;;11.13;9.83;;;19.90;99.90;;;;;;5094018;28;20221;-75
2023/08/22 02:28:01;;;;;;;11.73;10.50;;;19.90;99.90;;;;;;5094473;28;20206;-76
2023/08/22 02:30:31;;;;;;;10.30;9.30;;;19.90;99.90;;;;;;5075313;28;20212;-76
2023/08/22 02:32:59;;;;;;;10.97;9.93;;;19.90;99.90;;;;;;5073722;28;20231;-77
2023/08/22 02:35:27;;;;;;;11.37;10.27;;;19.80;99.90;;;;;;5073774;28;20615;-78
2023/08/22 02:37:55;;;;;;;11.33;10.20;;;19.80;99.90;;;;;;5074193;28;20269;-76
2023/08/22 02:40:24;;;;;;;10.93;9.77;;;19.80;99.90;;;;;;5074232;28;20215;-77
2023/08/22 02:42:53;;;;;;;11.30;10.20;;;19.70;99.90;;;;;;5073952;28;20207;-77
2023/08/22 02:45:21;;;;;;;11.90;10.70;;;19.70;99.90;;;;;;5073733;28;20207;-77
2023/08/22 02:47:50;;;;;;;10.50;9.40;;;19.70;99.90;;;;;;5073576;28;20207;-78
2023/08/22 02:50:18;;;;;;;11.93;10.33;;;19.70;99.90;;;;;;5072988;28;20257;-77
2023/08/22 02:52:47;;;;;;;10.97;9.97;;;19.60;99.90;;;;;;5073542;28;20257;-77
2023/08/22 02:55:15;;;;;;;11.30;10.10;;;19.60;99.90;;;;;;5073680;28;20265;-77
2023/08/22 02:57:43;;;;;;;10.70;9.47;;;19.50;99.90;;;;;;5073400;28;20892;-77
2023/08/22 03:00:13;;;;;;;11.63;10.43;;;19.50;99.90;;;;;;5073781;28;20211;-77
2023/08/22 03:02:41;;;;;;;10.87;9.77;;;19.50;99.90;;;;;;5073591;28;20203;-76
2023/08/22 03:05:15;;;;;;;11.03;9.80;;;19.40;99.90;;;;;;5073392;28;20298;-76
2023/08/22 03:07:43;;;;;;;10.70;9.70;;;19.40;99.90;;;;;;5073605;28;20238;-76
2023/08/22 03:10:11;;;;;;;10.90;9.80;;;19.40;99.90;;;;;;5076308;28;20256;-77
2023/08/22 03:12:40;;;;;;;11.03;10.00;;;19.40;99.90;;;;;;5075434;28;20250;-76
2023/08/22 03:15:09;;;;;;;11.27;10.27;;;19.40;99.90;;;;;;5072888;28;20223;-77
2023/08/22 03:17:37;;;;;;;13.10;9.77;;;19.30;99.90;;;;;;5073079;28;20208;-76
2023/08/22 03:20:07;;;;;;;11.00;9.90;;;19.30;99.90;;;;;;5081206;28;20230;-77
2023/08/22 03:22:36;;;;;;;11.53;10.43;;;19.30;99.90;;;;;;5093324;28;20206;-76
2023/08/22 03:25:05;;;;;;;11.93;9.83;;;19.20;99.90;;;;;;5093390;28;20279;-75
2023/08/22 03:27:33;;;;;;;10.90;9.80;;;19.20;99.90;;;;;;5085037;28;20207;-77
2023/08/22 03:30:02;;;;;;;10.83;9.77;;;19.20;99.90;;;;;;5072864;28;20204;-76
2023/08/22 03:32:30;;;;;;;11.40;10.20;;;19.20;99.90;;;;;;5072708;28;20301;-78
2023/08/22 03:34:58;;;;;;;15.17;13.57;;;19.10;99.90;;;;;;5072774;28;20234;-76
2023/08/22 03:37:26;;;;;;;14.17;12.47;;;19.10;99.90;;;;;;5072713;28;20247;-76
2023/08/22 03:39:56;;;;;;;12.50;11.27;;;19.10;99.90;;;;;;5072886;28;20210;-77
2023/08/22 03:42:24;;;;;;;11.67;10.63;;;19.10;99.90;;;;;;5072702;28;20203;-76
2023/08/22 03:44:52;;;;;;;13.00;11.57;;;19.10;99.90;;;;;;5079910;28;20202;-76
2023/08/22 03:47:20;;;;;;;13.63;10.90;;;19.10;99.90;;;;;;5092899;28;20222;-77
2023/08/22 03:49:48;;;;;;;11.83;10.60;;;19.00;99.90;;;;;;5093030;28;20207;-77
2023/08/22 03:52:16;;;;;;;11.47;10.27;;;19.00;99.90;;;;;;5093012;28;20207;-78
2023/08/22 03:54:44;;;;;;;11.53;10.33;;;19.00;99.90;;;;;;5091798;28;20229;-76
2023/08/22 03:57:14;;;;;;;11.30;10.23;;;18.90;99.90;;;;;;5093094;28;20271;-77
2023/08/22 03:59:42;;;;;;;12.43;10.17;;;18.90;99.90;;;;;;5092955;28;20354;-76
2023/08/22 04:02:10;;;;;;;12.30;11.10;;;18.90;99.90;;;;;;5092214;28;20211;-75
2023/08/22 04:04:38;;;;;;;12.10;10.77;;;18.90;99.90;;;;;;5094292;28;20210;-76
2023/08/22 04:07:06;;;;;;;12.73;10.43;;;18.90;99.90;;;;;;5096036;28;20215;-77
2023/08/22 04:09:34;;;;;;;11.47;10.37;;;18.90;99.90;;;;;;5092944;28;20238;-77
2023/08/22 04:12:02;;;;;;;12.30;11.03;;;18.80;99.90;;;;;;5084081;28;20283;-76
2023/08/22 04:14:32;;;;;;;11.90;10.70;;;18.80;99.90;;;;;;5072301;28;20246;-77
2023/08/22 04:17:00;;;;;;;14.60;10.90;;;18.80;99.90;;;;;;5072076;28;20735;-76
2023/08/22 04:19:28;;;;;;;13.60;11.00;;;18.70;99.90;;;;;;5071772;28;20693;-76
2023/08/22 04:21:56;;;;;;;12.33;11.10;;;18.70;99.90;;;;;;5078698;28;20223;-76
2023/08/22 04:24:24;;;;;;;12.13;10.80;;;18.70;99.90;;;;;;5092652;28;20237;-76
2023/08/22 04:26:53;;;;;;;13.40;11.13;;;18.70;99.90;;;;;;5093024;28;20260;-76
2023/08/22 04:29:22;;;;;;;11.93;10.50;;;18.70;99.90;;;;;;5073097;28;20294;-76
2023/08/22 04:31:52;;;;;;;12.67;11.43;;;18.60;99.90;;;;;;5072929;28;20226;-76
2023/08/22 04:34:20;;;;;;;12.43;11.10;;;18.70;99.90;;;;;;5072687;28;20289;-76
2023/08/22 04:36:48;;;;;;;12.73;11.53;;;18.70;99.90;;;;;;5072796;28;20234;-76
2023/08/22 04:39:16;;;;;;;11.77;10.57;;;18.70;99.90;;;;;;5072576;28;20231;-76
2023/08/22 04:41:44;;;;;;;11.70;10.60;;;18.70;99.90;;;;;;5072039;28;20223;-77
2023/08/22 04:44:13;;;;;;;12.17;10.97;;;18.70;99.90;;;;;;5071928;28;20235;-77
2023/08/22 04:46:41;;;;;;;11.00;10.00;;;18.70;99.90;;;;;;5071406;28;20602;-76
2023/08/22 04:49:10;;;;;;;11.17;10.00;;;18.70;99.90;;;;;;5072310;28;20203;-77
2023/08/22 04:51:39;;;;;;;11.60;10.40;;;18.80;99.90;;;;;;5072089;28;20211;-79
2023/08/22 04:54:07;;;;;;;10.77;9.67;;;18.80;99.90;;;;;;5077870;28;20276;-77
2023/08/22 04:56:35;;;;;;;12.23;10.77;;;18.80;99.90;;;;;;5091743;28;20211;-77
2023/08/22 04:59:03;;;;;;;11.87;10.67;;;18.80;99.90;;;;;;5092264;28;20637;-77
2023/08/22 05:01:34;;;;;;;11.10;9.77;;;18.80;99.90;;;;;;5092408;28;20195;-76
2023/08/22 05:04:02;;;;;;;12.07;10.63;;;18.80;99.90;;;;;;5091946;28;20550;-77
2023/08/22 05:06:32;;;;;;;12.07;9.90;;;18.90;99.90;;;;;;5092377;28;20246;-76
2023/08/22 05:09:00;;;;;;;11.30;9.60;;;18.90;99.90;;;;;;5092405;28;20210;-75
2023/08/22 05:11:28;;;;;;;10.63;9.63;;;18.90;99.90;;;;;;5092258;28;20259;-77
2023/08/22 05:13:56;;;;;;;12.40;9.80;;;19.00;99.90;;;;;;5094340;28;20725;-77
2023/08/22 05:16:24;;;;;;;11.53;9.50;;;19.00;99.90;;;;;;5096053;28;20213;-77
2023/08/22 05:18:52;;;;;;;10.83;9.20;;;19.10;99.90;;;;;;5088269;28;20251;-77
2023/08/22 05:21:20;;;;;;;10.23;9.17;;;19.20;99.90;;;;;;5088986;28;20555;-78
2023/08/22 05:23:50;;;;;;;10.40;8.97;;;19.30;99.90;;;;;;5096166;28;20210;-78
2023/08/22 05:26:18;;;;;;;9.30;8.40;;;19.30;99.90;;;;;;5095984;28;20299;-77
2023/08/22 05:28:46;;;;;;;10.07;9.03;;;19.40;99.90;;;;;;5096102;28;20286;-77
2023/08/22 05:31:20;;;;;;;10.63;9.07;;;19.50;99.90;;;;;;5095986;28;20210;-77
2023/08/22 05:33:48;;;;;;;14.63;9.23;;;19.50;99.90;;;;;;5096154;28;20206;-76
2023/08/22 05:36:16;;;;;;;10.20;8.70;;;19.60;99.90;;;;;;5085762;28;20223;-76
2023/08/22 05:38:45;;;;;;;11.67;9.10;;;19.70;99.90;;;;;;5075474;28;20215;-77
2023/08/22 05:41:14;;;;;;;10.93;8.97;;;19.80;99.90;;;;;;5085027;28;20226;-76
2023/08/22 05:43:43;;;;;;;10.80;8.07;;;19.90;99.90;;;;;;5084242;28;20546;-77
2023/08/22 05:46:11;;;;;;;11.20;8.40;;;20.00;99.90;;;;;;5075257;28;20255;-76
2023/08/22 05:48:39;;;;;;;11.67;8.30;;;20.10;99.90;;;;;;5075090;28;20203;-77
2023/08/22 05:51:08;;;;;;;9.87;8.47;;;20.20;99.90;;;;;;5074984;28;20731;-77
2023/08/22 05:53:36;;;;;;;9.00;8.03;;;20.20;99.90;;;;;;5074845;28;20203;-76
2023/08/22 05:56:04;;;;;;;10.50;7.87;;;20.30;99.90;;;;;;5074639;28;20227;-77
2023/08/22 05:58:35;;;;;;;9.67;7.87;;;20.40;99.90;;;;;;5074837;28;20720;-76
2023/08/22 06:01:09;;;;;;;12.73;8.13;;;20.60;99.90;;;;;;5074998;28;20211;-76
2023/08/22 06:03:37;;;;;;;10.90;8.20;;;20.60;99.90;;;;;;5075204;28;20600;-77
2023/08/22 06:06:06;;;;;;;10.50;8.33;;;20.70;99.90;;;;;;5074579;28;20199;-76
2023/08/22 06:08:34;;;;;;;15.13;8.30;;;20.90;99.90;;;;;;5074698;28;20665;-77
2023/08/22 06:11:02;;;;;;;11.47;8.13;;;21.00;99.90;;;;;;5074567;28;20216;-77
2023/08/22 06:13:30;;;;;;;11.13;8.17;;;21.20;99.90;;;;;;5074700;28;20280;-76
2023/08/22 06:16:00;;;;;;;11.37;7.80;;;21.40;99.90;;;;;;5074526;28;20273;-77
2023/08/22 06:18:28;;;;;;;10.80;7.50;;;21.70;99.90;;;;;;5075280;28;20214;-78
2023/08/22 06:20:59;;;;;;;10.90;7.80;;;22.00;99.90;;;;;;5094659;28;20211;-78
2023/08/22 06:23:28;;;;;;;10.47;7.33;;;22.30;99.90;;;;;;5094758;28;20669;-76
2023/08/22 06:25:56;;;;;;;11.83;7.50;;;22.60;99.90;;;;;;5093402;28;20199;-77
2023/08/22 06:28:24;;;;;;;9.10;7.90;;;23.00;99.90;;;;;;5094597;28;20211;-77
2023/08/22 06:30:52;;;;;;;7.93;7.00;;;23.40;99.90;;;;;;5094797;28;20393;-78
2023/08/22 06:33:21;;;;;;;10.87;7.60;;;23.70;99.90;;;;;;5094534;28;20218;-77
2023/08/22 06:35:49;;;;;;;9.10;7.70;;;23.90;99.90;;;;;;5094665;28;20637;-76
2023/08/22 06:38:17;;;;;;;10.07;7.90;;;24.00;99.90;;;;;;5094334;28;20217;-77
2023/08/22 06:40:45;;;;;;;10.97;7.47;;;24.20;99.90;;;;;;5094656;28;20268;-78
2023/08/22 06:43:15;;;;;;;9.77;7.53;;;24.50;99.90;;;;;;5094545;28;20703;-77
2023/08/22 06:45:44;;;;;;;11.50;8.27;;;24.70;99.90;;;;;;5094263;28;20309;-77
2023/08/22 06:48:12;;;;;;;13.07;7.23;;;24.90;99.90;;;;;;5087299;28;20602;-79
2023/08/22 06:50:55;;;;;;;13.03;8.17;;;25.10;99.90;;;;;;5074392;28;20217;-76
2023/08/22 06:53:24;;;;;;;10.67;7.20;;;25.50;99.90;;;;;;5074282;28;20238;-77
2023/08/22 06:55:52;;;;;;;9.07;7.53;;;25.80;99.90;;;;;;5073517;28;20697;-77
2023/08/22 06:58:20;;;;;;;8.13;7.03;;;26.30;99.90;;;;;;5074366;28;20627;-77
2023/08/22 07:00:49;;;;;;;11.77;6.60;;;26.90;99.90;;;;;;5074136;28;20204;-77
2023/08/22 07:03:18;;;;;;;10.13;6.20;;;27.50;99.90;;;;;;5073854;28;20350;-78
2023/08/22 07:05:50;;;;;;;9.43;6.30;;;27.90;99.90;;;;;;5073902;28;20216;-78
2023/08/22 07:08:21;;;;;;;10.40;6.73;;;28.00;99.90;;;;;;5073966;28;20238;-78
2023/08/22 07:10:49;;;;;;;8.10;6.00;;;27.70;99.90;;;;;;5073609;28;20217;-78
2023/08/22 07:13:18;;;;;;;8.10;5.90;;;27.50;99.90;;;;;;5073680;28;20277;-80
2023/08/22 07:15:49;;;;;;;9.30;6.10;;;27.60;99.90;;;;;;5072949;28;20236;-77
2023/08/22 07:18:17;;;;;;;9.83;6.43;;;27.40;99.90;;;;;;5084679;28;20206;-78
2023/08/22 07:20:46;;;;;;;7.97;5.73;;;27.80;99.90;;;;;;5093566;28;20207;-77
2023/08/22 07:23:14;;;;;;;8.98;6.00;;;28.20;99.90;;;;;;5093770;28;20210;-77
2023/08/22 07:25:48;;;;;;;9.15;5.80;;;28.90;99.90;;;;;;5093234;28;20207;-79
2023/08/22 07:28:16;;;;;;;10.85;6.00;;;29.60;98.70;;;;;;5093330;28;20895;-77
2023/08/22 07:30:46;;;;;;;8.30;6.00;;;30.10;97.80;;;;;;5093065;28;20210;-78
2023/08/22 07:33:14;;;;;;;10.68;6.68;;;30.90;94.90;;;;;;5093360;28;20199;-77
2023/08/22 07:35:44;;;;;;;11.68;6.45;;;31.50;92.50;;;;;;5093133;28;20284;-77
2023/08/22 07:38:13;;;;;;;13.25;6.50;;;31.50;91.90;;;;;;5093408;28;20248;-77
2023/08/22 07:40:42;;;;;;;11.52;6.47;;;32.20;88.50;;;;;;5078413;28;20212;-74
2023/08/22 07:43:12;;;;;;;11.88;6.55;;;32.40;88.00;;;;;;5072503;28;20214;-78
2023/08/22 07:45:41;;;;;;;12.68;6.60;;;32.20;85.60;;;;;;5072401;28;20227;-76
2023/08/22 07:48:10;;;;;;;9.05;6.30;;;32.70;85.20;;;;;;5072703;28;20658;-77
2023/08/22 07:50:38;;;;;;;15.60;7.25;;;33.60;81.00;;;;;;5072896;28;20231;-76
2023/08/22 07:53:07;;;;;;;8.40;6.40;;;34.70;75.80;;;;;;5072949;28;20268;-77
2023/08/22 07:55:35;;;;;;;10.52;6.40;;;34.90;72.70;;;;;;5072580;28;20213;-76
2023/08/22 07:58:04;;;;;;;17.05;6.65;;;34.90;70.70;;;;;;5072329;28;20773;-76
2023/08/22 08:00:34;;;;;;;15.30;6.80;;;35.40;70.20;;;;;;5072760;28;20211;-77
2023/08/22 08:03:03;;;;;;;11.30;7.40;;;36.00;65.20;;;;;;5072574;28;20669;-76
2023/08/22 08:05:33;;;;;;;14.30;7.93;;;36.00;63.10;;;;;;5072584;28;20291;-78
2023/08/22 08:08:02;;;;;;;10.43;7.65;;;35.70;62.60;;;;;;5072519;28;20219;-74
2023/08/22 08:10:30;;;;;;;10.80;7.00;;;36.00;62.50;;;;;;5072433;28;20211;-76
2023/08/22 08:12:58;;;;;;;11.50;7.15;;;35.70;61.50;;;;;;5072297;28;20665;-75
2023/08/22 08:15:26;;;;;;;12.18;6.78;;;35.60;62.00;;;;;;5072248;28;20265;-76
2023/08/22 08:17:58;;;;;;;9.05;6.10;;;35.80;60.80;;;;;;5073141;28;20575;-76
2023/08/22 08:20:26;;;;;;;10.27;6.53;;;36.00;62.70;;;;;;5072241;28;20215;-76
2023/08/22 08:22:54;;;;;;;13.75;6.95;;;36.40;61.50;;;;;;5072230;28;20211;-75
2023/08/22 08:25:23;;;;;;;16.15;7.03;;;37.10;58.30;;;;;;5078895;28;20249;-77
2023/08/22 08:27:51;;;;;;;9.02;6.90;;;37.00;58.70;;;;;;5092497;28;20207;-76
2023/08/22 08:30:19;;;;;;;10.15;6.95;;;36.90;57.60;;;;;;5092573;28;20664;-76
2023/08/22 08:32:48;;;;;;;14.02;6.70;;;37.60;55.90;;;;;;5092417;28;20219;-74
2023/08/22 08:35:18;;;;;;;15.65;7.15;;;37.50;55.20;;;;;;5092122;28;20245;-76
2023/08/22 08:37:48;;;;;;;11.45;7.43;;;37.50;55.90;;;;;;5092313;28;20303;-76
2023/08/22 08:40:16;;;;;;;11.32;7.40;;;37.50;54.30;;;;;;5092390;28;20202;-74
2023/08/22 08:42:46;;;;;;;8.90;6.97;;;37.30;54.50;;;;;;5091050;28;20542;-75
2023/08/22 08:45:15;;;;;;;11.20;6.55;;;37.00;56.80;;;;;;5092119;28;20570;-76
2023/08/22 08:47:44;;;;;;;14.88;7.50;;;37.00;56.30;;;;;;5091417;28;20203;-75
2023/08/22 08:50:13;;;;;;;10.77;6.80;;;37.20;55.10;;;;;;5077600;28;20461;-76
2023/08/22 08:52:45;;;;;;;10.77;6.90;;;37.60;54.20;;;;;;5071969;28;20616;-74
2023/08/22 08:55:13;;;;;;;12.40;7.13;;;38.10;54.10;;;;;;5071817;28;20362;-76
2023/08/22 08:57:41;;;;;;;10.25;6.45;;;37.70;55.00;;;;;;5071490;28;20693;-75
2023/08/22 09:00:11;;;;;;;17.02;9.18;;;37.90;55.30;;;;;;5071912;28;20246;-76
2023/08/22 09:02:39;;;;;;;12.20;7.53;;;37.80;52.90;;;;;;5072255;28;20258;-75
2023/08/22 09:05:14;;;;;;;11.18;8.00;;;38.00;54.20;;;;;;5071954;28;20294;-77
2023/08/22 09:07:45;;;;;;;9.73;6.20;;;37.60;54.20;;;;;;5071971;28;20199;-74
2023/08/22 09:10:14;;;;;;;10.07;7.10;;;38.70;57.40;;;;;;5071937;28;20240;-76
2023/08/22 09:12:42;;;;;;;12.15;6.72;;;38.90;52.60;;;;;;5071727;28;20256;-76
2023/08/22 09:15:18;;;;;;;12.18;6.78;;;38.70;53.40;;;;;;5082138;28;20670;-74
2023/08/22 09:17:47;;;;;;;12.80;6.80;;;39.00;51.10;;;;;;5091606;28;20214;-75
2023/08/22 09:20:15;;;;;;;10.93;6.15;;;39.30;51.20;;;;;;5091636;28;20279;-75
2023/08/22 09:22:45;;;;;;;12.57;6.47;;;39.20;52.90;;;;;;5091875;28;20206;-76
2023/08/22 09:25:13;;;;;;;9.93;6.22;;;39.40;48.20;;;;;;5090459;28;20210;-78
2023/08/22 09:27:41;;;;;;;10.50;6.78;;;39.10;49.20;;;;;;5091760;28;20238;-74
2023/08/22 09:30:14;;;;;;;11.25;6.45;;;38.80;48.30;;;;;;5091800;28;20234;-76
2023/08/22 09:32:42;;;;;;;10.57;6.90;;;39.00;51.10;;;;;;5091586;28;20217;-76
2023/08/22 09:35:18;;;;;;;14.70;7.20;;;39.50;48.10;;;;;;5072198;28;20205;-75
2023/08/22 09:37:47;;;;;;;11.18;6.63;;;39.90;46.20;;;;;;5071664;28;20237;-74
2023/08/22 09:40:18;;;;;;;9.02;6.32;;;39.80;47.50;;;;;;5071279;28;20661;-75
2023/08/22 09:42:47;;;;;;;7.53;6.40;;;40.30;47.90;;;;;;5071619;28;20226;-75
2023/08/22 09:45:19;;;;;;;11.85;6.90;;;39.80;46.90;;;;;;5071191;28;20231;-75
2023/08/22 09:47:50;;;;;;;9.02;6.15;;;40.20;47.80;;;;;;5071515;28;20210;-76
2023/08/22 09:50:20;;;;;;;13.45;6.20;;;39.80;46.90;;;;;;5071492;28;20191;-74
2023/08/22 09:52:50;;;;;;;7.90;5.80;;;39.80;45.60;;;;;;5071361;28;20253;-74
2023/08/22 09:55:19;;;;;;;7.28;5.70;;;40.10;45.40;;;;;;5071508;28;20207;-75
2023/08/22 09:57:49;;;;;;;7.28;5.38;;;40.00;45.80;;;;;;5071108;28;20307;-75
2023/08/22 10:00:17;;;;;;;10.27;6.20;;;40.00;47.10;;;;;;5074385;28;20206;-76
2023/08/22 10:02:47;;;;;;;10.68;6.05;;;40.20;44.90;;;;;;5075134;28;20724;-75
2023/08/22 10:05:16;;;;;;;8.23;5.70;;;39.70;44.40;;;;;;5074636;28;20209;-75
2023/08/22 10:07:44;;;;;;;7.20;5.35;;;39.80;43.90;;;;;;5074639;28;20669;-74
2023/08/22 10:10:15;;;;;;;11.45;6.00;;;39.90;43.90;;;;;;5075061;28;20272;-75
2023/08/22 10:12:44;;;;;;;11.13;6.45;;;40.30;44.10;;;;;;5074621;28;20297;-75
2023/08/22 10:15:15;;;;;;;8.93;6.03;;;40.30;41.90;;;;;;5074356;28;20213;-76
2023/08/22 10:17:45;;;;;;;12.95;6.57;;;39.90;44.60;;;;;;5074487;28;20226;-76
2023/08/22 10:20:15;;;;;;;7.70;5.75;;;39.80;43.00;;;;;;5074810;28;20210;-76
2023/08/22 10:22:44;;;;;;;8.90;6.32;;;40.40;44.80;;;;;;5074501;28;20213;-74
2023/08/22 10:25:14;;;;;;;7.75;5.80;;;40.70;42.50;;;;;;5074548;28;20588;-74
2023/08/22 10:27:48;;;;;;;10.95;6.03;;;41.10;42.00;;;;;;5074404;28;20680;-76
2023/08/22 10:30:21;;;;;;;8.57;6.00;;;41.40;42.60;;;;;;5074701;28;20195;-76
2023/08/22 10:33:05;;;;;;;9.75;7.00;;;41.10;38.80;;;;;;5074265;28;20268;-75
2023/08/22 10:36:02;;;;;;;10.07;6.00;;;40.50;43.80;;;;;;5074071;28;20194;-75
2023/08/22 10:38:49;;;;;;;8.75;6.00;;;41.00;42.90;;;;;;5074478;28;20230;-77
2023/08/22 10:41:21;;;;;;;9.63;6.07;;;41.00;41.40;;;;;;5074113;28;20626;-75
2023/08/22 10:43:49;;;;;;;8.77;5.40;;;41.20;40.70;;;;;;5074043;28;20317;-76
2023/08/22 10:46:18;;;;;;;7.57;5.43;;;40.90;41.50;;;;;;5074205;28;20227;-74
2023/08/22 10:48:47;;;;;;;9.23;6.15;;;41.00;41.20;;;;;;5074161;28;20209;-74
2023/08/22 10:51:15;;;;;;;10.02;5.88;;;40.90;41.40;;;;;;5074054;28;20207;-74
2023/08/22 10:53:44;;;;;;;8.85;5.82;;;40.90;40.30;;;;;;5074119;28;20207;-75
2023/08/22 10:56:23;;;;;;;6.82;5.75;;;40.60;40.80;;;;;;5073788;28;20207;-77
2023/08/22 10:59:01;;;;;;;10.38;5.85;;;40.30;39.00;;;;;;5073960;28;20622;-75
2023/08/22 11:01:30;;;;;;;8.27;5.13;;;40.00;40.60;;;;;;5073797;28;20219;-76
2023/08/22 11:03:59;;;;;;;6.35;5.43;;;39.70;43.70;;;;;;5073646;28;20215;-76
2023/08/22 11:06:28;;;;;;;8.05;5.18;;;39.60;43.50;;;;;;5073685;28;20215;-75
2023/08/22 11:08:56;;;;;;;9.95;5.82;;;39.70;44.10;;;;;;5073693;28;20257;-77
2023/08/22 11:11:27;;;;;;;12.05;5.93;;;39.30;42.30;;;;;;5073457;28;20253;-74
2023/08/22 11:13:59;;;;;;;8.68;6.00;;;38.90;43.90;;;;;;5094042;28;20217;-77
2023/08/22 11:16:27;;;;;;;8.82;6.28;;;38.80;43.30;;;;;;5084459;28;20218;-77
2023/08/22 11:18:56;;;;;;;10.05;6.30;;;38.40;45.10;;;;;;5073213;28;20241;-75
2023/08/22 11:21:24;;;;;;;13.57;11.23;;;38.00;44.30;;;;;;5073458;28;20203;-76
2023/08/22 11:23:54;;;;;;;10.35;6.78;;;37.90;46.60;;;;;;5073616;28;20280;-76
2023/08/22 11:26:22;;;;;;;11.98;6.50;;;37.80;47.10;;;;;;5086980;28;20214;-75
2023/08/22 11:28:52;;;;;;;8.63;6.70;;;37.30;47.90;;;;;;5093859;28;20216;-75
2023/08/22 11:31:21;;;;;;;10.43;6.80;;;37.20;47.80;;;;;;5093522;28;20309;-75
2023/08/22 11:33:51;;;;;;;9.43;6.63;;;36.90;47.90;;;;;;5083758;28;20662;-77
2023/08/22 11:36:21;;;;;;;11.38;6.65;;;37.20;47.40;;;;;;5073483;28;20226;-77
2023/08/22 11:38:54;;;;;;;9.27;6.60;;;36.50;48.20;;;;;;5073271;28;20618;-75
2023/08/22 11:41:23;;;;;;;8.93;6.68;;;36.80;50.50;;;;;;5073227;28;20261;-78
2023/08/22 11:43:58;;;;;;;11.18;6.53;;;37.10;50.20;;;;;;5073285;28;20215;-76
2023/08/22 11:46:27;;;;;;;9.40;6.30;;;36.70;48.90;;;;;;5073532;28;20223;-76
2023/08/22 11:48:55;;;;;;;10.13;6.25;;;36.20;51.70;;;;;;5074227;28;20581;-76
2023/08/22 11:51:23;;;;;;;8.05;6.13;;;36.30;51.90;;;;;;5072981;28;20211;-75
2023/08/22 11:53:51;;;;;;;11.60;6.63;;;36.80;49.80;;;;;;5086149;28;20214;-76
2023/08/22 11:56:20;;;;;;;9.98;6.13;;;36.70;50.60;;;;;;5093223;28;20286;-76
2023/08/22 11:58:53;;;;;;;10.10;6.10;;;37.10;49.50;;;;;;5092947;28;20599;-76
2023/08/22 12:01:23;;;;;;;9.98;6.10;;;37.10;48.80;;;;;;5079946;28;20208;-75
2023/08/22 12:03:58;;;;;;;9.98;6.15;;;37.00;49.40;;;;;;5072636;28;20215;-75
2023/08/22 12:06:26;;;;;;;6.53;5.65;;;37.20;49.30;;;;;;5072682;28;20760;-76
2023/08/22 12:08:56;;;;;;;7.72;5.82;;;36.90;49.60;;;;;;5072784;28;20204;-77
2023/08/22 12:11:26;;;;;;;13.70;6.13;;;36.30;48.90;;;;;;5084722;28;20214;-77
2023/08/22 12:13:55;;;;;;;6.85;6.15;;;36.00;49.50;;;;;;5092440;28;20581;-74
2023/08/22 12:16:23;;;;;;;9.75;6.15;;;35.70;50.40;;;;;;5092816;28;20203;-76
2023/08/22 12:18:52;;;;;;;16.35;6.65;;;35.10;51.60;;;;;;5074878;28;20227;-76
2023/08/22 12:21:20;;;;;;;8.43;5.93;;;35.10;51.90;;;;;;5072938;28;20208;-77
2023/08/22 12:23:49;;;;;;;9.18;5.95;;;35.10;52.40;;;;;;5071564;28;20662;-77
2023/08/22 12:26:18;;;;;;;9.75;5.80;;;35.00;52.30;;;;;;5072558;28;20246;-75
2023/08/22 12:28:46;;;;;;;9.90;5.75;;;35.10;51.00;;;;;;5072736;28;20204;-75
2023/08/22 12:31:15;;;;;;;7.03;5.50;;;35.10;53.10;;;;;;5072363;28;20314;-75
2023/08/22 12:33:44;;;;;;;10.35;6.32;;;35.10;51.70;;;;;;5072550;28;20235;-78
2023/08/22 12:36:13;;;;;;;8.68;5.68;;;35.40;50.60;;;;;;5072606;28;20246;-76
2023/08/22 12:38:41;;;;;;;9.52;6.20;;;35.70;52.60;;;;;;5072377;28;20239;-78
2023/08/22 12:41:11;;;;;;;9.90;5.72;;;35.90;51.60;;;;;;5072866;28;20401;-76
2023/08/22 12:43:39;;;;;;;6.60;5.50;;;36.10;51.80;;;;;;5072473;28;20254;-77
2023/08/22 12:46:08;;;;;;;10.60;5.85;;;35.70;51.90;;;;;;5072042;28;20223;-75